Time;durP1;ratioP1;P1;durP2;ratioP2;P2;SDS_P1;SDS_P2;PMS_P1;PMS_P2;Temp;Humidity;BMP_temperature;BMP_pressure;BME280_temperature;BME280_humidity;BME280_pressure;Samples;Min_cycle;Max_cycle;Signal;HPM_P1;HPM_P2
2023/08/23 00:00:08;;;;;;;17.63;10.17;;;;;;;-143.84;49.16;45003.38;5110252;28;20527;-61
2023/08/23 00:02:35;;;;;;;12.80;9.80;;;;;;;-143.84;49.21;44961.47;5110441;28;20427;-61
2023/08/23 00:05:04;;;;;;;16.27;9.40;;;;;;;-143.84;49.18;44980.53;5110172;28;20442;-61
2023/08/23 00:07:31;;;;;;;10.47;9.47;;;;;;;-143.84;48.81;44984.31;5110393;28;20454;-61
2023/08/23 00:09:58;;;;;;;12.50;9.40;;;;;;;-143.84;48.68;44988.13;5110128;28;20431;-61
2023/08/23 00:12:25;;;;;;;12.90;10.13;;;;;;;-143.84;49.16;44990.03;5110559;28;20850;-61
2023/08/23 00:14:52;;;;;;;15.50;10.47;;;;;;;-143.84;49.04;44986.22;5110433;28;20515;-61
2023/08/23 00:17:19;;;;;;;11.33;10.33;;;;;;;-143.84;48.79;44986.22;5110168;28;20505;-61
2023/08/23 00:19:47;;;;;;;11.60;9.67;;;;;;;-143.84;48.71;44972.91;5109971;28;20500;-61
2023/08/23 00:22:15;;;;;;;14.40;9.83;;;;;;;-143.84;48.87;44986.22;5110303;28;20868;-61
2023/08/23 00:24:42;;;;;;;10.30;9.40;;;;;;;-143.84;48.61;44976.72;5109891;28;20495;-61
2023/08/23 00:27:09;;;;;;;9.97;9.07;;;;;;;-143.84;48.76;44990.03;5110270;28;20435;-61
2023/08/23 00:29:37;;;;;;;13.57;9.70;;;;;;;-143.84;48.94;44963.38;5110032;28;20423;-61
2023/08/23 00:32:05;;;;;;;10.60;9.30;;;;;;;-143.84;48.88;44972.91;5114061;28;20434;-61
2023/08/23 00:34:32;;;;;;;13.50;10.30;;;;;;;-143.84;48.48;44993.84;5114329;28;20442;-61
2023/08/23 00:36:59;;;;;;;13.33;9.50;;;;;;;-143.84;48.71;44991.94;5114006;28;20438;-61
2023/08/23 00:39:27;;;;;;;12.23;9.80;;;;;;;-143.84;48.75;44946.25;5114020;27;20491;-61
2023/08/23 00:41:55;;;;;;;10.73;9.20;;;;;;;-143.84;48.85;44963.38;5114440;27;20465;-61
2023/08/23 00:44:22;;;;;;;16.87;9.33;;;;;;;-143.84;48.88;44951.97;5113778;28;20963;-61
2023/08/23 00:46:49;;;;;;;12.20;9.60;;;;;;;-143.84;48.37;44982.41;5113976;28;20438;-61
2023/08/23 00:49:16;;;;;;;13.17;10.00;;;;;;;-143.84;48.51;44984.31;5113836;28;20442;-61
2023/08/23 00:51:43;;;;;;;11.63;9.60;;;;;;;-143.84;48.63;44978.63;5113906;28;20924;-61
2023/08/23 00:54:11;;;;;;;11.27;10.07;;;;;;;-143.84;48.31;44972.91;5113918;28;20435;-61
2023/08/23 00:56:40;;;;;;;12.10;9.47;;;;;;;-143.84;48.69;44986.22;5113859;28;20442;-61
2023/08/23 00:59:09;;;;;;;13.00;9.93;;;;;;;-143.84;48.07;44986.22;5113608;28;20439;-61
2023/08/23 01:01:36;;;;;;;10.73;9.73;;;;;;;-143.84;47.99;44995.75;5113626;27;21015;-61
2023/08/23 01:04:03;;;;;;;10.20;9.13;;;;;;;-143.84;48.35;44988.13;5113597;27;20431;-61
2023/08/23 01:06:42;;;;;;;10.97;9.87;;;;;;;-143.84;48.35;44961.47;5113474;28;20434;-61
2023/08/23 01:09:19;;;;;;;11.00;9.83;;;;;;;-143.84;48.15;44957.66;5113552;28;20439;-61
2023/08/23 01:11:56;;;;;;;10.13;8.83;;;;;;;-143.84;47.79;44967.19;5113313;28;20435;-61
2023/08/23 01:14:28;;;;;;;15.30;8.70;;;;;;;-143.84;47.66;45007.19;5113442;28;20434;-61
2023/08/23 01:16:58;;;;;;;9.53;8.70;;;;;;;-143.84;47.69;44990.03;5113221;28;21037;-61
2023/08/23 01:19:38;;;;;;;13.80;8.70;;;;;;;-143.84;47.62;44972.91;5113020;28;20431;-61
2023/08/23 01:22:08;;;;;;;10.77;9.60;;;;;;;-143.84;47.77;45022.41;5113159;28;20554;-61
2023/08/23 01:24:36;;;;;;;10.70;9.60;;;;;;;-143.84;47.49;44978.63;5113160;28;20474;-61
2023/08/23 01:27:04;;;;;;;9.50;8.80;;;;;;;-143.84;47.51;44988.13;5113139;28;20504;-61
2023/08/23 01:29:31;;;;;;;10.37;9.33;;;;;;;-143.84;47.73;44974.81;5113077;28;20443;-61
2023/08/23 01:32:07;;;;;;;9.80;8.93;;;;;;;-143.84;47.57;44990.03;5112746;28;20548;-61
2023/08/23 01:34:39;;;;;;;15.33;9.20;;;;;;;-143.84;47.60;44991.94;5112827;27;20511;-61
2023/08/23 01:37:08;;;;;;;15.90;9.30;;;;;;;-143.84;47.26;44995.75;5113023;28;20435;-61
2023/08/23 01:39:37;;;;;;;11.03;9.10;;;;;;;-143.84;47.11;44957.66;5112636;28;20427;-61
2023/08/23 01:42:05;;;;;;;11.97;9.23;;;;;;;-143.84;47.32;44984.31;5112154;28;20435;-61
2023/08/23 01:44:32;;;;;;;15.40;9.40;;;;;;;-143.84;47.40;44969.09;5112832;28;20722;-61
2023/08/23 01:47:00;;;;;;;9.60;8.60;;;;;;;-143.84;47.46;44967.19;5112590;27;21009;-61
2023/08/23 01:49:27;;;;;;;13.13;9.33;;;;;;;-143.84;47.47;44965.28;5112622;28;20446;-61
2023/08/23 01:51:54;;;;;;;9.37;8.30;;;;;;;-143.84;47.08;44969.09;5112634;28;20431;-61
2023/08/23 01:54:21;;;;;;;12.97;8.47;;;;;;;-143.84;46.96;44969.09;5112460;28;20835;-61
2023/08/23 01:56:50;;;;;;;11.63;9.43;;;;;;;-143.84;47.00;44961.47;5112688;28;20447;-61
2023/08/23 01:59:17;;;;;;;15.43;9.90;;;;;;;-143.84;46.90;44946.25;5112241;28;20439;-61
2023/08/23 02:01:44;;;;;;;17.83;8.90;;;;;;;-143.84;46.99;44982.41;5112034;28;20466;-61
2023/08/23 02:04:11;;;;;;;17.83;9.50;;;;;;;-143.84;47.32;44969.09;5112594;28;20431;-61
2023/08/23 02:06:38;;;;;;;15.30;9.10;;;;;;;-143.84;46.98;44961.47;5112102;28;20439;-61
2023/08/23 02:09:05;;;;;;;14.83;9.60;;;;;;;-143.84;47.10;44972.91;5112199;28;20438;-61
2023/08/23 02:11:34;;;;;;;11.43;8.57;;;;;;;-143.84;46.88;44991.94;5112293;28;20438;-61
2023/08/23 02:14:03;;;;;;;10.50;9.50;;;;;;;-143.84;46.78;44955.75;5112159;28;20935;-61
2023/08/23 02:16:30;;;;;;;12.30;9.03;;;;;;;-143.84;46.86;44988.13;5112085;28;20435;-61
2023/08/23 02:18:57;;;;;;;10.30;9.30;;;;;;;-143.84;46.78;44959.56;5111950;28;20989;-61
2023/08/23 02:21:24;;;;;;;11.80;8.57;;;;;;;-143.84;47.24;44997.66;5112073;28;20475;-61
2023/08/23 02:23:51;;;;;;;11.10;8.00;;;;;;;-143.84;47.34;44965.28;5111735;28;20483;-61
2023/08/23 02:26:18;;;;;;;15.83;10.17;;;;;;;-143.84;47.21;44976.72;5111767;28;20438;-61
2023/08/23 02:28:46;;;;;;;10.07;8.80;;;;;;;-143.84;47.00;44980.53;5111915;28;20472;-61
2023/08/23 02:31:14;;;;;;;9.77;8.30;;;;;;;-143.84;46.87;44969.09;5111684;27;20481;-61
2023/08/23 02:33:41;;;;;;;11.83;9.23;;;;;;;-143.84;47.14;44993.84;5111670;28;20430;-61
2023/08/23 02:36:08;;;;;;;22.17;9.60;;;;;;;-143.84;47.23;44965.28;5111994;28;20984;-60
2023/08/23 02:38:35;;;;;;;10.37;8.43;;;;;;;-143.84;46.97;45003.38;5111752;28;20973;-61
2023/08/23 02:41:03;;;;;;;11.60;9.20;;;;;;;-143.84;46.96;44991.94;5111538;28;20531;-61
2023/08/23 02:43:30;;;;;;;9.27;7.77;;;;;;;-143.84;47.03;44972.91;5111235;28;20511;-61
2023/08/23 02:45:57;;;;;;;11.00;8.63;;;;;;;-143.84;47.04;44980.53;5111234;28;20435;-61
2023/08/23 02:48:26;;;;;;;13.23;8.93;;;;;;;-143.84;46.75;44978.63;5111680;27;20435;-62
2023/08/23 02:50:54;;;;;;;12.13;8.73;;;;;;;-143.84;46.55;44969.09;5111829;28;20453;-61
2023/08/23 02:53:21;;;;;;;21.80;8.50;;;;;;;-143.84;46.36;44984.31;5111090;28;20941;-61
2023/08/23 02:55:48;;;;;;;14.20;8.77;;;;;;;-143.84;46.38;44976.72;5111244;28;20499;-61
2023/08/23 02:58:24;;;;;;;15.47;9.30;;;;;;;-143.84;46.24;44993.84;5111686;27;20431;-61
2023/08/23 03:00:51;;;;;;;9.60;7.17;;;;;;;-143.84;46.32;44959.56;5111116;28;20527;-61
2023/08/23 03:03:18;;;;;;;9.73;8.83;;;;;;;-143.84;46.64;44972.91;5111338;28;20443;-61
2023/08/23 03:05:54;;;;;;;13.67;8.90;;;;;;;-143.84;46.38;44957.66;5111636;28;20427;-61
2023/08/23 03:08:21;;;;;;;13.30;9.17;;;;;;;-143.84;46.52;44955.75;5111104;28;20427;-61
2023/08/23 03:10:48;;;;;;;12.43;9.30;;;;;;;-143.84;46.38;44963.38;5111339;28;20431;-61
2023/08/23 03:13:15;;;;;;;10.63;8.77;;;;;;;-143.84;46.00;44971.00;5111146;28;20434;-61
2023/08/23 03:15:42;;;;;;;11.40;9.10;;;;;;;-143.84;46.04;44978.63;5110562;28;20435;-61
2023/08/23 03:18:10;;;;;;;11.33;7.77;;;;;;;-143.84;46.37;45007.19;5110880;28;20439;-61
2023/08/23 03:20:37;;;;;;;12.03;8.63;;;;;;;-143.84;46.22;44965.28;5110693;28;20540;-61
2023/08/23 03:23:05;;;;;;;17.10;9.73;;;;;;;-143.84;46.23;44982.41;5110713;28;20434;-61
2023/08/23 03:25:34;;;;;;;12.60;9.50;;;;;;;-143.84;45.99;44972.91;5110333;28;20487;-61
2023/08/23 03:28:01;;;;;;;10.70;8.43;;;;;;;-143.84;45.90;44969.09;5110755;28;20522;-61
2023/08/23 03:30:28;;;;;;;11.80;9.63;;;;;;;-143.84;45.83;44967.19;5110901;28;20788;-61
2023/08/23 03:32:55;;;;;;;11.00;9.03;;;;;;;-143.84;45.58;44978.63;5110751;28;20443;-61
2023/08/23 03:35:22;;;;;;;9.33;8.40;;;;;;;-143.84;45.41;44972.91;5110617;27;20439;-61
2023/08/23 03:37:49;;;;;;;19.63;8.10;;;;;;;-143.84;45.27;44957.66;5110711;28;20507;-61
2023/08/23 03:40:18;;;;;;;19.30;8.53;;;;;;;-143.84;45.20;44986.22;5110274;28;20443;-61
2023/08/23 03:42:45;;;;;;;15.97;8.43;;;;;;;-143.84;45.36;44969.09;5109808;28;21391;-61
2023/08/23 03:45:13;;;;;;;9.80;8.80;;;;;;;-143.84;45.51;44976.72;5110111;28;20499;-61
2023/08/23 03:47:40;;;;;;;12.60;8.37;;;;;;;-143.84;45.41;44963.38;5110143;28;20500;-61
2023/08/23 03:50:07;;;;;;;17.13;8.70;;;;;;;-143.84;44.80;44971.00;5109826;28;20468;-61
2023/08/23 03:52:35;;;;;;;12.50;8.20;;;;;;;-143.84;44.83;44972.91;5109728;28;20439;-61
2023/08/23 03:55:02;;;;;;;11.37;8.30;;;;;;;-143.84;44.62;44988.13;5109545;28;20815;-61
2023/08/23 03:57:31;;;;;;;11.07;8.03;;;;;;;-143.84;44.88;44982.41;5109568;28;20431;-61
2023/08/23 03:59:58;;;;;;;10.40;7.23;;;;;;;-143.84;44.50;44969.09;5109416;28;20439;-61
2023/08/23 04:02:25;;;;;;;14.07;7.63;;;;;;;-143.84;44.41;44963.38;5109488;28;20518;-61
2023/08/23 04:04:52;;;;;;;15.47;8.30;;;;;;;-143.84;44.44;44959.56;5109168;28;20511;-61
2023/08/23 04:07:19;;;;;;;14.23;8.07;;;;;;;-143.84;44.21;44950.06;5109843;28;20797;-61
2023/08/23 04:09:47;;;;;;;8.27;7.57;;;;;;;-143.84;43.91;44946.25;5109849;28;20447;-61
2023/08/23 04:12:14;;;;;;;8.60;8.00;;;;;;;-143.84;43.84;44942.44;5109622;28;20500;-61
2023/08/23 04:14:42;;;;;;;10.00;7.63;;;;;;;-143.84;43.67;44978.63;5109680;28;20560;-61
2023/08/23 04:17:09;;;;;;;11.00;7.90;;;;;;;-143.84;43.35;44971.00;5109784;28;20443;-61
2023/08/23 04:19:37;;;;;;;9.93;8.27;;;;;;;-143.84;43.37;44959.56;5109754;28;20488;-61
2023/08/23 04:22:04;;;;;;;8.40;7.60;;;;;;;-143.84;43.34;44927.19;5109336;28;20470;-61
2023/08/23 04:24:31;;;;;;;8.80;8.10;;;;;;;-143.84;43.02;44951.97;5109355;28;20482;-61
2023/08/23 04:27:00;;;;;;;8.70;7.77;;;;;;;-143.84;43.09;44946.25;5109311;28;20514;-61
2023/08/23 04:29:27;;;;;;;10.50;8.33;;;;;;;-143.84;42.70;44967.19;5109180;28;20848;-60
2023/08/23 04:31:55;;;;;;;23.33;7.40;;;;;;;-143.84;42.77;44955.75;5109489;28;20435;-60
2023/08/23 04:34:22;;;;;;;9.07;7.20;;;;;;;-143.84;42.54;44931.00;5110213;28;20496;-60
2023/08/23 04:36:49;;;;;;;14.20;8.60;;;;;;;-143.84;42.67;44940.53;5110379;28;20431;-60
2023/08/23 04:39:17;;;;;;;8.70;7.83;;;;;;;-143.84;42.00;44932.91;5110547;28;20431;-60
2023/08/23 04:41:44;;;;;;;8.63;7.83;;;;;;;-143.84;42.09;44927.19;5110302;28;20475;-60
2023/08/23 04:44:11;;;;;;;16.10;7.87;;;;;;;-143.84;41.28;44927.19;5110272;28;20427;-60
2023/08/23 04:46:38;;;;;;;9.70;7.33;;;;;;;-143.84;40.39;44915.78;5110813;28;20427;-60
2023/08/23 04:49:07;;;;;;;16.63;8.40;;;;;;;-143.84;40.83;44919.59;5110413;28;20443;-60
2023/08/23 04:51:34;;;;;;;13.73;7.60;;;;;;;-143.84;40.23;44917.69;5110612;28;20443;-60
2023/08/23 04:54:00;;;;;;;16.73;7.70;;;;;;;-143.84;39.52;44925.31;5110599;28;20849;-60
2023/08/23 04:56:27;;;;;;;13.53;7.90;;;;;;;-143.84;39.54;44883.41;5110422;28;20461;-60
2023/08/23 04:58:54;;;;;;;13.23;8.30;;;;;;;-143.84;38.78;44891.03;5110723;28;20427;-60
2023/08/23 05:01:21;;;;;;;13.83;7.77;;;;;;;-143.84;38.44;44906.25;5110381;28;20467;-60
2023/08/23 05:03:48;;;;;;;9.10;7.77;;;;;;;-143.84;38.09;44870.09;5120899;28;20978;-60
2023/08/23 05:06:17;;;;;;;12.80;7.30;;;;;;;-143.84;37.56;44883.41;5130346;27;20453;-60
2023/08/23 05:08:44;;;;;;;11.60;7.60;;;;;;;-143.84;36.92;44858.66;5130582;27;20915;-60
2023/08/23 05:11:11;;;;;;;12.07;7.73;;;;;;;-143.84;36.34;44837.72;5130773;27;20426;-61
2023/08/23 05:13:38;;;;;;;17.73;7.90;;;;;;;-143.84;35.67;44849.13;5130841;27;20479;-60
2023/08/23 05:16:05;;;;;;;15.40;7.70;;;;;;;-143.84;35.53;44843.44;5130904;27;20589;-60
2023/08/23 05:18:32;;;;;;;9.10;7.00;;;;;;;-143.84;35.25;44830.09;5133494;27;20435;-61
2023/08/23 05:21:00;;;;;;;11.07;7.60;;;;;;;-143.84;34.99;44769.16;5134479;27;20438;-61
2023/08/23 05:23:29;;;;;;;15.27;7.30;;;;;;;-143.84;34.94;44824.38;5134392;27;20441;-61
2023/08/23 05:25:56;;;;;;;7.03;6.53;;;;;;;-143.84;34.05;44784.41;5134192;27;21196;-61
2023/08/23 05:28:23;;;;;;;13.23;7.53;;;;;;;-143.84;34.64;44799.63;5134397;27;20437;-61
2023/08/23 05:30:51;;;;;;;9.10;6.77;;;;;;;-143.84;34.51;44801.53;5134277;27;20495;-60
2023/08/23 05:33:18;;;;;;;8.77;7.20;;;;;;;-143.84;34.18;44799.63;5134164;27;20838;-61
2023/08/23 05:35:45;;;;;;;10.63;6.83;;;;;;;-143.84;33.68;44805.34;5134141;27;20433;-61
2023/08/23 05:38:13;;;;;;;16.33;7.37;;;;;;;-143.84;33.34;44782.50;5134337;27;20430;-60
2023/08/23 05:40:41;;;;;;;12.73;7.10;;;;;;;-143.84;33.33;44769.16;5134083;27;20557;-61
2023/08/23 05:43:08;;;;;;;9.93;7.10;;;;;;;-143.84;32.92;44782.50;5133887;27;20530;-60
2023/08/23 05:45:36;;;;;;;8.00;6.30;;;;;;;-143.84;32.66;44763.47;5134381;27;20434;-60
2023/08/23 05:48:03;;;;;;;13.03;6.97;;;;;;;-143.84;32.59;44769.16;5133957;27;20441;-61
2023/08/23 05:50:30;;;;;;;10.80;6.30;;;;;;;-143.84;33.28;44757.75;5133973;27;20444;-60
2023/08/23 05:52:57;;;;;;;13.97;6.30;;;;;;;-143.84;32.73;44752.03;5133771;27;21234;-61
2023/08/23 05:55:24;;;;;;;7.90;6.77;;;;;;;-143.84;32.57;44752.03;5133794;27;20442;-61
2023/08/23 05:57:53;;;;;;;11.93;7.03;;;;;;;-143.84;32.27;44759.66;5133818;27;20499;-61
2023/08/23 06:00:21;;;;;;;6.90;6.27;;;;;;;-143.84;32.52;44771.06;5133841;27;20864;-61
2023/08/23 06:02:48;;;;;;;9.53;6.80;;;;;;;-143.84;32.23;44746.31;5133596;27;20558;-60
2023/08/23 06:05:15;;;;;;;10.33;8.07;;;;;;;-143.84;32.17;44757.75;5133311;27;20510;-60
2023/08/23 06:07:42;;;;;;;19.17;6.90;;;;;;;-143.84;32.43;44719.66;5133435;27;20923;-60
2023/08/23 06:10:11;;;;;;;12.57;7.70;;;;;;;-143.84;32.60;44740.59;5133287;27;20445;-60
2023/08/23 06:12:38;;;;;;;21.60;9.47;;;;;;;-143.84;33.80;44731.09;5133567;27;20431;-60
2023/08/23 06:15:07;;;;;;;14.37;8.23;;;;;;;-143.84;33.85;44765.34;5133454;27;20445;-60
2023/08/23 06:17:35;;;;;;;15.50;8.43;;;;;;;-143.84;33.42;44757.75;5133291;27;20434;-61
2023/08/23 06:20:04;;;;;;;10.33;7.50;;;;;;;-143.84;32.59;44736.81;5133439;27;20433;-60
2023/08/23 06:22:31;;;;;;;14.20;9.00;;;;;;;-143.84;33.24;44786.31;5133208;27;20480;-60
2023/08/23 06:24:58;;;;;;;19.00;8.37;;;;;;;-143.84;33.43;44746.31;5133147;27;20509;-60
2023/08/23 06:27:25;;;;;;;12.27;7.50;;;;;;;-143.84;33.03;44753.94;5133532;27;20800;-61
2023/08/23 06:29:52;;;;;;;22.03;8.20;;;;;;;-143.84;33.00;44765.34;5132968;27;20434;-60
2023/08/23 06:32:21;;;;;;;10.97;7.67;;;;;;;-143.84;32.92;44759.66;5133081;27;20434;-60
2023/08/23 06:34:48;;;;;;;18.03;7.77;;;;;;;-143.84;33.99;44742.50;5133188;27;20499;-60
2023/08/23 06:37:15;;;;;;;15.50;8.10;;;;;;;-143.84;33.09;44752.03;5133245;27;20783;-60
2023/08/23 06:39:42;;;;;;;16.93;9.63;;;;;;;-143.84;33.03;44740.59;5133202;27;20434;-60
2023/08/23 06:42:09;;;;;;;28.17;9.50;;;;;;;-143.84;32.96;44755.84;5132881;27;20478;-60
2023/08/23 06:44:36;;;;;;;15.27;9.20;;;;;;;-143.84;33.31;44731.09;5133260;27;20429;-60
2023/08/23 06:47:04;;;;;;;11.03;9.07;;;;;;;-143.84;33.41;44750.13;5133142;27;20438;-60
2023/08/23 06:49:33;;;;;;;13.13;9.80;;;;;;;-143.84;33.68;44757.75;5133109;27;20466;-60
2023/08/23 06:52:00;;;;;;;22.23;9.73;;;;;;;-143.84;33.17;44763.47;5133053;27;20430;-60
2023/08/23 06:54:27;;;;;;;21.27;9.40;;;;;;;-143.84;33.47;44784.41;5133238;27;20442;-60
2023/08/23 06:56:54;;;;;;;12.40;8.10;;;;;;;-143.84;33.63;44757.75;5133133;27;20430;-60
2023/08/23 06:59:21;;;;;;;16.03;9.67;;;;;;;-143.84;33.37;44757.75;5132980;27;20426;-60
2023/08/23 07:01:49;;;;;;;13.93;8.70;;;;;;;-143.84;33.64;44755.84;5132898;27;20469;-60
2023/08/23 07:04:16;;;;;;;23.93;10.00;;;;;;;-143.84;33.75;44780.59;5132877;27;20916;-60
2023/08/23 07:06:44;;;;;;;15.40;9.27;;;;;;;-143.84;33.95;44763.47;5132525;27;20490;-60
2023/08/23 07:09:11;;;;;;;18.67;9.60;;;;;;;-143.84;34.07;44820.56;5132680;27;20516;-60
2023/08/23 07:11:39;;;;;;;17.73;9.40;;;;;;;-143.84;34.07;44797.72;5133105;27;20434;-60
2023/08/23 07:14:06;;;;;;;16.13;9.43;;;;;;;-143.84;34.57;44828.19;5132470;27;20951;-60
2023/08/23 07:16:34;;;;;;;11.13;9.20;;;;;;;-143.84;34.23;44776.78;5132772;27;20813;-60
2023/08/23 07:19:04;;;;;;;15.73;8.80;;;;;;;-143.84;35.08;44795.81;5132562;27;20434;-60
2023/08/23 07:21:31;;;;;;;26.83;9.03;;;;;;;-143.84;33.80;44786.31;5132400;27;20438;-60
2023/08/23 07:24:00;;;;;;;11.60;9.23;;;;;;;-143.84;33.58;44793.91;5132510;27;20498;-60
2023/08/23 07:26:27;;;;;;;11.50;8.00;;;;;;;-143.84;33.85;44778.69;5132259;27;20434;-60
2023/08/23 07:28:54;;;;;;;14.43;9.00;;;;;;;-143.84;33.70;44772.97;5132319;27;20982;-60
2023/08/23 07:31:21;;;;;;;13.30;8.40;;;;;;;-143.84;34.17;44786.31;5132061;27;20543;-60
2023/08/23 07:33:49;;;;;;;13.97;9.10;;;;;;;-143.84;33.09;44731.09;5132059;27;20452;-60
2023/08/23 07:36:16;;;;;;;18.30;7.10;;;;;;;-143.84;33.01;44744.41;5131983;27;20430;-60
2023/08/23 07:38:43;;;;;;;11.17;6.73;;;;;;;-143.84;32.52;44710.16;5131864;27;20599;-60
2023/08/23 07:41:12;;;;;;;9.50;8.07;;;;;;;-143.84;32.66;44725.38;5130992;27;20433;-60
2023/08/23 07:43:39;;;;;;;11.60;7.30;;;;;;;-143.84;31.73;44700.63;5131714;27;20474;-60
2023/08/23 07:46:07;;;;;;;11.33;7.30;;;;;;;-143.84;31.95;44736.81;5131678;27;20461;-60
2023/08/23 07:48:34;;;;;;;8.17;6.63;;;;;;;-143.84;31.49;44738.69;5131607;27;20469;-60
2023/08/23 07:51:01;;;;;;;7.47;6.77;;;;;;;-143.84;30.84;44685.38;5131759;27;20434;-60
2023/08/23 07:53:29;;;;;;;11.33;6.90;;;;;;;-143.84;31.53;44683.50;5131626;27;20450;-60
2023/08/23 07:55:56;;;;;;;10.03;6.37;;;;;;;-143.84;31.94;44706.34;5131253;27;20877;-60
2023/08/23 07:58:25;;;;;;;10.47;7.70;;;;;;;-143.84;32.34;44654.94;5131393;27;20487;-60
2023/08/23 08:00:52;;;;;;;12.33;7.60;;;;;;;-143.84;31.41;44666.34;5131567;27;20434;-60
2023/08/23 08:03:20;;;;;;;12.93;7.83;;;;;;;-143.84;31.69;44673.97;5131453;27;20983;-60
2023/08/23 08:05:47;;;;;;;12.23;7.77;;;;;;;-143.84;31.22;44679.69;5131136;27;20434;-60
2023/08/23 08:08:15;;;;;;;10.67;7.20;;;;;;;-143.84;31.12;44694.91;5131083;27;20444;-60
2023/08/23 08:10:42;;;;;;;7.63;6.57;;;;;;;-143.84;30.91;44698.72;5131106;27;20494;-60
2023/08/23 08:13:11;;;;;;;7.10;6.17;;;;;;;-143.84;30.58;44685.38;5131133;27;20438;-60
2023/08/23 08:15:40;;;;;;;13.00;7.00;;;;;;;-143.84;31.35;44698.72;5131041;27;20434;-60
2023/08/23 08:18:07;;;;;;;16.63;7.67;;;;;;;-143.84;31.49;44710.16;5130988;27;20438;-60
2023/08/23 08:20:34;;;;;;;27.13;8.40;;;;;;;-143.84;32.96;44694.91;5130968;27;20433;-60
2023/08/23 08:23:01;;;;;;;19.73;9.10;;;;;;;-143.84;33.49;44729.19;5130699;27;20458;-60
2023/08/23 08:25:29;;;;;;;14.00;8.17;;;;;;;-143.84;33.86;44727.28;5130734;27;20488;-60
2023/08/23 08:27:56;;;;;;;14.17;8.70;;;;;;;-143.84;33.71;44733.00;5130615;27;20434;-60
2023/08/23 08:30:23;;;;;;;9.27;8.20;;;;;;;-143.84;33.85;44710.16;5130852;27;20528;-60
2023/08/23 08:32:51;;;;;;;10.37;9.20;;;;;;;-143.84;33.61;44748.22;5130815;27;20434;-60
2023/08/23 08:35:19;;;;;;;33.53;8.67;;;;;;;-143.84;34.13;44780.59;5130885;27;20442;-60
2023/08/23 08:37:46;;;;;;;16.90;9.30;;;;;;;-143.84;34.69;44731.09;5131038;27;20441;-60
2023/08/23 08:40:13;;;;;;;17.70;8.23;;;;;;;-143.84;34.49;44772.97;5130554;27;20433;-60
2023/08/23 08:42:41;;;;;;;16.43;8.30;;;;;;;-143.84;33.31;44736.81;5130650;27;20496;-60
2023/08/23 08:45:08;;;;;;;8.10;7.33;;;;;;;-143.84;33.40;44734.91;5130549;27;20433;-60
2023/08/23 08:47:36;;;;;;;10.07;8.00;;;;;;;-143.84;34.25;44793.91;5130349;27;20430;-60
2023/08/23 08:50:06;;;;;;;14.03;7.90;;;;;;;-143.84;35.08;44759.66;5130693;27;20460;-60
2023/08/23 08:52:33;;;;;;;11.63;8.20;;;;;;;-143.84;35.28;44757.75;5133767;27;20445;-60
2023/08/23 08:55:02;;;;;;;9.83;7.73;;;;;;;-143.84;35.48;44765.34;5134548;27;20430;-60
2023/08/23 08:57:30;;;;;;;17.77;9.57;;;;;;;-143.84;36.98;44763.47;5134353;27;20445;-60
2023/08/23 08:59:59;;;;;;;21.37;9.43;;;;;;;-143.84;36.74;44736.81;5134331;27;20483;-60
2023/08/23 09:02:28;;;;;;;22.30;9.50;;;;;;;-143.84;36.30;44763.47;5134205;27;20469;-60
2023/08/23 09:04:55;;;;;;;17.27;8.70;;;;;;;-143.84;36.07;44790.13;5134183;27;20947;-60
2023/08/23 09:07:24;;;;;;;11.83;8.10;;;;;;;-143.84;35.96;44776.78;5134217;27;20487;-60
2023/08/23 09:09:52;;;;;;;12.77;8.70;;;;;;;-143.84;36.33;44782.50;5134199;27;20495;-60
2023/08/23 09:12:20;;;;;;;10.20;8.03;;;;;;;-143.84;35.91;44757.75;5134158;27;20915;-60
2023/08/23 09:14:50;;;;;;;16.23;8.27;;;;;;;-143.84;35.53;44740.59;5134021;27;20515;-60
2023/08/23 09:17:22;;;;;;;12.23;8.10;;;;;;;-143.84;35.39;44782.50;5134297;27;20465;-60
2023/08/23 09:19:49;;;;;;;9.03;7.53;;;;;;;-143.84;34.70;44721.56;5134092;27;20542;-60
2023/08/23 09:22:21;;;;;;;11.07;7.57;;;;;;;-143.84;35.33;44750.13;5134150;27;20449;-60
2023/08/23 09:24:50;;;;;;;8.33;7.53;;;;;;;-143.84;35.20;44767.25;5133804;27;20493;-60
2023/08/23 09:27:17;;;;;;;7.90;7.20;;;;;;;-143.84;34.59;44786.31;5133865;27;20449;-60
2023/08/23 09:29:44;;;;;;;12.63;8.27;;;;;;;-143.84;34.97;44746.31;5133876;27;20425;-60
2023/08/23 09:32:12;;;;;;;14.03;8.17;;;;;;;-143.84;34.65;44752.03;5133774;27;20434;-60
2023/08/23 09:34:39;;;;;;;9.77;7.60;;;;;;;-143.84;35.65;44746.31;5134027;27;20441;-60
2023/08/23 09:37:07;;;;;;;14.23;7.77;;;;;;;-143.84;35.18;44780.59;5133932;27;20448;-60
2023/08/23 09:39:34;;;;;;;8.50;7.20;;;;;;;-143.84;34.51;44780.59;5133814;27;20463;-60
2023/08/23 09:42:05;;;;;;;11.60;7.90;;;;;;;-143.84;33.86;44752.03;5133989;27;20864;-60
2023/08/23 09:44:37;;;;;;;16.00;7.00;;;;;;;-143.84;33.49;44761.56;5134028;27;20458;-60
2023/08/23 09:47:06;;;;;;;9.23;7.17;;;;;;;-143.84;33.36;44782.50;5133845;27;20434;-60
2023/08/23 09:49:34;;;;;;;7.67;6.93;;;;;;;-143.84;33.18;44729.19;5133832;27;20434;-60
2023/08/23 09:52:03;;;;;;;7.10;6.40;;;;;;;-143.84;32.63;44731.09;5133776;27;20438;-60
2023/08/23 09:54:36;;;;;;;7.87;6.43;;;;;;;-143.84;33.56;44750.13;5133410;27;20525;-60
2023/08/23 09:57:06;;;;;;;7.90;7.17;;;;;;;-143.84;33.71;44744.41;5133584;27;20869;-60
2023/08/23 09:59:34;;;;;;;8.43;7.53;;;;;;;-143.84;33.36;44757.75;5133365;27;20446;-60
2023/08/23 10:02:03;;;;;;;8.50;7.80;;;;;;;-143.84;33.45;44799.63;5133425;27;20433;-59
2023/08/23 10:04:31;;;;;;;12.27;7.07;;;;;;;-143.84;34.05;44767.25;5132783;27;20470;-60
2023/08/23 10:06:59;;;;;;;7.97;7.13;;;;;;;-143.84;33.48;44790.13;5133625;27;20437;-60
2023/08/23 10:09:27;;;;;;;8.83;7.20;;;;;;;-143.84;34.11;44790.13;5133553;27;20426;-59
2023/08/23 10:11:55;;;;;;;8.57;6.73;;;;;;;-143.84;33.99;44778.69;5133580;27;20481;-60
2023/08/23 10:14:24;;;;;;;9.43;6.67;;;;;;;-143.84;33.12;44746.31;5133614;27;20438;-59
2023/08/23 10:16:51;;;;;;;16.60;7.17;;;;;;;-143.84;34.51;44763.47;5133935;27;20437;-60
2023/08/23 10:19:19;;;;;;;7.37;6.20;;;;;;;-143.84;32.57;44761.56;5133915;27;20438;-59
2023/08/23 10:21:46;;;;;;;7.53;6.70;;;;;;;-143.84;33.60;44786.31;5133701;27;20525;-59
2023/08/23 10:24:13;;;;;;;6.73;6.10;;;;;;;-143.84;32.95;44786.31;5133383;27;21217;-59
2023/08/23 10:26:51;;;;;;;10.30;6.27;;;;;;;-143.84;33.16;44753.94;5133558;27;20522;-59
2023/08/23 10:29:27;;;;;;;6.40;5.80;;;;;;;-143.84;31.91;44759.66;5133496;27;20441;-60
2023/08/23 10:31:55;;;;;;;6.63;6.13;;;;;;;-143.84;32.54;44750.13;5133403;27;21285;-59
2023/08/23 10:34:25;;;;;;;11.33;6.57;;;;;;;-143.84;32.83;44792.00;5133659;27;20510;-60
2023/08/23 10:36:53;;;;;;;7.57;6.63;;;;;;;-143.84;33.68;44772.97;5133511;27;20430;-60
2023/08/23 10:39:23;;;;;;;17.40;6.83;;;;;;;-143.84;32.95;44795.81;5133098;27;20426;-60
2023/08/23 10:41:52;;;;;;;9.33;6.40;;;;;;;-143.84;33.91;44763.47;5132658;27;21023;-60
2023/08/23 10:44:20;;;;;;;7.93;7.13;;;;;;;-143.84;33.51;44742.50;5132642;27;21070;-60
2023/08/23 10:46:51;;;;;;;16.67;8.13;;;;;;;-143.84;34.22;44778.69;5132794;27;20430;-60
2023/08/23 10:49:21;;;;;;;11.33;7.00;;;;;;;-143.84;34.58;44761.56;5132639;27;20474;-60
2023/08/23 10:51:48;;;;;;;8.70;6.73;;;;;;;-143.84;34.34;44799.63;5131813;27;20462;-59
2023/08/23 10:54:16;;;;;;;11.83;7.70;;;;;;;-143.84;35.01;44772.97;5130874;27;20433;-60
2023/08/23 10:56:43;;;;;;;15.57;8.57;;;;;;;-143.84;35.30;44805.34;5130854;27;20450;-60
2023/08/23 10:59:10;;;;;;;11.73;7.67;;;;;;;-143.84;35.29;44763.47;5130938;27;20916;-60
2023/08/23 11:01:38;;;;;;;10.30;7.30;;;;;;;-143.84;35.01;44759.66;5130810;27;20473;-60
2023/08/23 11:04:07;;;;;;;12.10;7.10;;;;;;;-143.84;34.59;44790.13;5130637;27;20572;-60
2023/08/23 11:06:36;;;;;;;8.13;7.07;;;;;;;-143.84;34.59;44782.50;5130863;27;20445;-60
2023/08/23 11:09:04;;;;;;;8.33;7.10;;;;;;;-143.84;34.48;44765.34;5130797;27;20801;-60
2023/08/23 11:11:31;;;;;;;9.13;7.20;;;;;;;-143.84;33.95;44763.47;5130559;27;20449;-60
2023/08/23 11:13:58;;;;;;;12.00;6.63;;;;;;;-143.84;34.69;44769.16;5130380;27;20442;-60